SBOSBO BWI / KBWI
Speedbird OnlineSpeedbird Online BWI / KBWI

Baltimore/Washington International Thurgood Marshall Airport
03:09 12°C

Location Baltimore, United States
Latitude: 39.1754
Longitude: -76.668297
Web Airport Website | Wikipedia
Altitude 45 Meter / 146 Feet
Distance 5,871 KM / 3,648 Miles
from London.
Time Zone UTC -4 hours (America/New_York)
Codes IATA: BWI
ICAO: KBWI
Currency £1 equals USD 1.13
Runways
RunwayLength (m)Surface
041829Asphalt
103201Asphalt
15L1524Asphalt
15R2896Asphalt
221829Asphalt
283201Asphalt
33L2896Asphalt
33R1524Asphalt
Radio
TypeDescriptionFrequency
APPPOTOMAC APP119
ATISATIS115.1
CLDCLNC DEL118.05
DEPPOTOMAC DEP126.75
GNDGND121.9
RDOLEESBURG RDO122.2
TWRTWR119.4
UNICUNICOM122.95
Live ATC
METAR KBWI 060654Z 00000KT 10SM FEW055 12/11 A2998 RMK AO2 SLP153 T01220106 $
TAF KBWI 060536Z 0606/0712 28004KT P6SM SCT060 FM061400 27008KT P6SM SCT250 FM062300 VRB03KT P6SM SCT040 BKN200
Weather As Of 06 Oct 2022 03:10
Description Few clouds
Wind 5 km/h from North-West (332°)
Cloud Cover 20%
Precipitation Rain: none, Snow: none
Sunrise 07:07
Sunset 18:42
Lounges Chesapeake Club Lounge, E
Rotations During the last 90 days there were
85 flights from LHR
87 flights to LHR


© 2017-2022 Speedbird Online